Time;durP1;ratioP1;P1;durP2;ratioP2;P2;SDS_P1;SDS_P2;PMS_P1;PMS_P2;Temp;Humidity;BMP_temperature;BMP_pressure;BME280_temperature;BME280_humidity;BME280_pressure;Samples;Min_cycle;Max_cycle;Signal;HPM_P1;HPM_P2
2022/01/16 00:04:24;;;;;;;;;;;13.00;99.90;;;;;;5055820;28;782;-55
2022/01/16 00:06:51;;;;;;;;;;;13.00;99.90;;;;;;5056603;28;1339;-55
2022/01/16 00:09:20;;;;;;;;;;;13.00;99.90;;;;;;5038472;28;1040;-55
2022/01/16 00:11:48;;;;;;;;;;;13.00;99.90;;;;;;5056566;28;1898;-55
2022/01/16 00:14:13;;;;;;;;;;;13.00;99.90;;;;;;5056825;28;834;-55
2022/01/16 00:16:41;;;;;;;;;;;13.00;99.90;;;;;;5055915;28;1008;-55
2022/01/16 00:19:08;;;;;;;;;;;13.00;99.90;;;;;;5056326;28;870;-55
2022/01/16 00:21:40;;;;;;;;;;;12.90;99.90;;;;;;5056130;28;1178;-55
2022/01/16 00:24:08;;;;;;;;;;;13.00;99.90;;;;;;5037772;28;1462;-55
2022/01/16 00:26:36;;;;;;;;;;;12.90;99.90;;;;;;5056196;28;750;-55
2022/01/16 00:29:03;;;;;;;;;;;12.90;99.90;;;;;;5056038;28;1221;-55
2022/01/16 00:31:30;;;;;;;;;;;12.90;99.90;;;;;;5056259;28;1909;-55
2022/01/16 00:33:56;;;;;;;;;;;12.90;99.90;;;;;;5056416;28;770;-55
2022/01/16 00:36:22;;;;;;;;;;;12.90;99.90;;;;;;5053734;28;1370;-45
2022/01/16 00:38:49;;;;;;;;;;;12.90;99.90;;;;;;5054604;28;1583;-45
2022/01/16 00:41:17;;;;;;;;;;;12.80;99.90;;;;;;5056029;28;750;-45
2022/01/16 00:43:44;;;;;;;;;;;12.90;99.90;;;;;;5055954;28;1015;-45
2022/01/16 00:46:10;;;;;;;;;;;12.90;99.90;;;;;;5056073;28;841;-45
2022/01/16 00:48:36;;;;;;;;;;;12.80;99.90;;;;;;5056216;28;844;-45
2022/01/16 00:51:03;;;;;;;;;;;12.80;99.90;;;;;;5055900;28;810;-45
2022/01/16 00:53:30;;;;;;;;;;;12.80;99.90;;;;;;5054777;28;1977;-45
2022/01/16 00:55:56;;;;;;;;;;;12.80;99.90;;;;;;5055979;28;1015;-45
2022/01/16 00:58:24;;;;;;;;;;;12.80;99.90;;;;;;5054766;28;1032;-45
2022/01/16 01:00:51;;;;;;;;;;;12.80;99.90;;;;;;5055002;28;1542;-45
2022/01/16 01:03:19;;;;;;;;;;;12.70;99.90;;;;;;5056182;28;993;-45
2022/01/16 01:05:50;;;;;;;;;;;12.70;99.90;;;;;;5056124;28;844;-45
2022/01/16 01:08:17;;;;;;;;;;;12.70;99.90;;;;;;5037820;28;916;-45
2022/01/16 01:10:47;;;;;;;;;;;12.70;99.90;;;;;;5055962;28;801;-45
2022/01/16 01:16:01;;;;;;;;;;;12.70;99.90;;;;;;5058599;28;805;-45
2022/01/16 01:18:29;;;;;;;;;;;12.70;99.90;;;;;;5059914;28;833;-45
2022/01/16 01:20:57;;;;;;;;;;;12.60;99.90;;;;;;5058992;28;1199;-45
2022/01/16 01:23:25;;;;;;;;;;;12.70;99.90;;;;;;5054770;28;1429;-45
2022/01/16 01:25:57;;;;;;;;;;;12.60;99.90;;;;;;5058761;28;959;-45
2022/01/16 01:28:25;;;;;;;;;;;12.60;99.90;;;;;;5059634;28;1552;-45
2022/01/16 01:30:51;;;;;;;;;;;12.60;99.90;;;;;;5059478;28;1117;-45
2022/01/16 01:33:19;;;;;;;;;;;12.60;99.90;;;;;;5041528;28;1910;-45
2022/01/16 01:35:47;;;;;;;;;;;12.60;99.90;;;;;;5059289;28;900;-45
2022/01/16 01:38:18;;;;;;;;;;;12.50;99.90;;;;;;5058765;28;1194;-45
2022/01/16 01:40:48;;;;;;;;;;;12.50;99.90;;;;;;5058398;28;1544;-45
2022/01/16 01:51:13;;;;;;;;;;;12.50;99.90;;;;;;5059532;28;731;-45
2022/01/16 01:53:41;;;;;;;;;;;12.50;99.90;;;;;;5057205;28;1906;-45
2022/01/16 01:56:09;;;;;;;;;;;12.50;99.90;;;;;;5059368;28;1036;-45
2022/01/16 01:58:35;;;;;;;;;;;12.50;99.90;;;;;;5059321;28;896;-45
2022/01/16 02:01:01;;;;;;;;;;;12.50;99.90;;;;;;5058684;28;1261;-45
2022/01/16 02:06:22;;;;;;;;;;;12.40;99.90;;;;;;5034052;28;935;-45
2022/01/16 02:08:52;;;;;;;;;;;12.40;99.90;;;;;;5034392;28;982;-45
2022/01/16 02:11:22;;;;;;;;;;;12.40;99.90;;;;;;5037163;28;1091;-45
2022/01/16 02:14:00;;;;;;;;;;;12.40;99.90;;;;;;4988230;28;903;-55
2022/01/16 02:35:39;;;;;;;;;;;12.30;99.90;;;;;;5036987;28;866;-55
2022/01/16 02:38:06;;;;;;;;;;;12.30;99.90;;;;;;5036717;28;834;-56
2022/01/16 02:40:32;;;;;;;;;;;12.30;99.90;;;;;;4987617;28;1115;-55
2022/01/16 02:42:58;;;;;;;;;;;12.30;99.90;;;;;;5044419;28;954;-55
2022/01/16 02:45:32;;;;;;;;;;;12.30;99.90;;;;;;5057975;28;893;-55
2022/01/16 02:48:00;;;;;;;;;;;12.30;99.90;;;;;;5057826;28;993;-55
2022/01/16 02:50:32;;;;;;;;;;;12.20;99.90;;;;;;5058554;28;769;-55
2022/01/16 02:52:59;;;;;;;;;;;12.30;99.90;;;;;;5057916;28;1906;-55
2022/01/16 02:55:26;;;;;;;;;;;12.20;99.90;;;;;;5040133;28;1124;-55
2022/01/16 02:57:54;;;;;;;;;;;12.20;99.90;;;;;;5057931;28;816;-55
2022/01/16 03:00:21;;;;;;;;;;;12.20;99.90;;;;;;5057987;28;1213;-55
2022/01/16 03:02:48;;;;;;;;;;;12.20;99.90;;;;;;5057943;28;822;-55
2022/01/16 03:05:14;;;;;;;;;;;12.20;99.90;;;;;;5039568;28;1152;-55
2022/01/16 03:07:42;;;;;;;;;;;12.20;99.90;;;;;;5057836;28;829;-55
2022/01/16 03:12:40;;;;;;;;;;;12.20;99.90;;;;;;5057836;28;1959;-55
2022/01/16 03:15:07;;;;;;;;;;;12.20;99.90;;;;;;5039642;28;1056;-55
2022/01/16 03:21:53;;;;;;;;;;;12.10;99.90;;;;;;5039594;28;1046;-55
2022/01/16 03:23:18;;;;;;;;;;;12.10;99.90;;;;;;5057352;28;900;-55
2022/01/16 03:25:45;;;;;;;;;;;12.10;99.90;;;;;;5057445;28;868;-55
2022/01/16 03:28:11;;;;;;;;;;;12.10;99.90;;;;;;5057668;28;877;-55
2022/01/16 03:30:37;;;;;;;;;;;12.10;99.90;;;;;;5057521;28;868;-55
2022/01/16 03:33:03;;;;;;;;;;;12.10;99.90;;;;;;5057303;28;1965;-55
2022/01/16 03:35:30;;;;;;;;;;;12.10;99.90;;;;;;5055654;28;954;-55
2022/01/16 03:37:56;;;;;;;;;;;12.10;99.90;;;;;;5054802;28;1293;-55
2022/01/16 03:40:24;;;;;;;;;;;12.10;99.90;;;;;;5055848;28;965;-55
2022/01/16 03:42:50;;;;;;;;;;;12.00;99.90;;;;;;5055440;28;1027;-55
2022/01/16 03:45:17;;;;;;;;;;;12.10;99.90;;;;;;5055520;28;1094;-55
2022/01/16 03:47:43;;;;;;;;;;;12.00;99.90;;;;;;5038560;28;1938;-55
2022/01/16 03:50:11;;;;;;;;;;;12.00;99.90;;;;;;5055545;28;833;-55
2022/01/16 03:52:37;;;;;;;;;;;12.00;99.90;;;;;;5005670;28;1965;-55
2022/01/16 03:55:04;;;;;;;;;;;12.00;99.90;;;;;;5054936;28;861;-55
2022/01/16 03:57:31;;;;;;;;;;;12.00;99.90;;;;;;5054799;28;1332;-55
2022/01/16 03:59:59;;;;;;;;;;;12.00;99.90;;;;;;5052262;28;1471;-55
2022/01/16 04:02:25;;;;;;;;;;;12.00;99.90;;;;;;5055236;28;1018;-55
2022/01/16 04:04:51;;;;;;;;;;;12.00;99.90;;;;;;5055177;28;885;-55
2022/01/16 04:07:24;;;;;;;;;;;12.00;99.90;;;;;;5056134;28;841;-55
2022/01/16 04:09:52;;;;;;;;;;;12.00;99.90;;;;;;5056758;28;873;-55
2022/01/16 04:12:22;;;;;;;;;;;12.00;99.90;;;;;;5056219;28;1898;-55
2022/01/16 04:17:16;;;;;;;;;;;11.90;99.90;;;;;;5056515;28;861;-55
2022/01/16 04:19:43;;;;;;;;;;;11.90;99.90;;;;;;5056442;28;893;-55
2022/01/16 04:22:09;;;;;;;;;;;11.90;99.90;;;;;;5034447;28;1153;-55
2022/01/16 04:24:35;;;;;;;;;;;11.90;99.90;;;;;;5034834;28;936;-55
2022/01/16 04:27:10;;;;;;;;;;;11.90;99.90;;;;;;5034695;28;865;-55
2022/01/16 04:29:56;;;;;;;;;;;11.90;99.90;;;;;;5021283;28;723;-55
2022/01/16 04:32:22;;;;;;;;;;;11.90;99.90;;;;;;5033065;28;1963;-55
2022/01/16 04:34:50;;;;;;;;;;;11.90;99.90;;;;;;5000947;28;1065;-55
2022/01/16 04:37:17;;;;;;;;;;;11.80;99.90;;;;;;5016080;28;985;-55
2022/01/16 04:39:49;;;;;;;;;;;11.80;99.90;;;;;;4982380;28;867;-55
2022/01/16 04:45:02;;;;;;;;;;;11.80;99.90;;;;;;5037721;28;1098;-55
2022/01/16 04:47:29;;;;;;;;;;;11.80;99.90;;;;;;5034062;28;835;-55
2022/01/16 04:49:55;;;;;;;;;;;11.80;99.90;;;;;;4984972;28;982;-55
2022/01/16 04:52:23;;;;;;;;;;;11.80;99.90;;;;;;5037900;28;1902;-55
2022/01/16 04:54:51;;;;;;;;;;;11.80;99.90;;;;;;5056075;28;1028;-55
2022/01/16 04:57:19;;;;;;;;;;;11.80;99.90;;;;;;5052361;28;969;-55
2022/01/16 04:59:50;;;;;;;;;;;11.80;99.90;;;;;;5056208;28;798;-55
2022/01/16 05:02:16;;;;;;;;;;;11.80;99.90;;;;;;5054378;28;907;-55
2022/01/16 05:04:44;;;;;;;;;;;11.80;99.90;;;;;;5055951;28;876;-55
2022/01/16 05:07:11;;;;;;;;;;;11.80;99.90;;;;;;5055708;28;776;-55
2022/01/16 05:09:38;;;;;;;;;;;11.80;99.90;;;;;;5056017;28;908;-55
2022/01/16 05:12:11;;;;;;;;;;;11.70;99.90;;;;;;5055544;28;1898;-55
2022/01/16 05:17:26;;;;;;;;;;;11.70;99.90;;;;;;5055729;28;825;-55
2022/01/16 05:19:55;;;;;;;;;;;11.70;99.90;;;;;;5005985;28;922;-55
2022/01/16 05:22:21;;;;;;;;;;;11.70;99.90;;;;;;5054561;28;1041;-55
2022/01/16 05:24:47;;;;;;;;;;;11.70;99.90;;;;;;5055690;28;1687;-55
2022/01/16 05:27:13;;;;;;;;;;;11.70;99.90;;;;;;5055470;28;860;-55
2022/01/16 05:29:39;;;;;;;;;;;11.70;99.90;;;;;;5055707;28;968;-55
2022/01/16 05:32:06;;;;;;;;;;;11.70;99.90;;;;;;5051658;28;1909;-55
2022/01/16 05:34:32;;;;;;;;;;;11.70;99.90;;;;;;5051984;28;785;-55
2022/01/16 05:37:03;;;;;;;;;;;11.70;99.90;;;;;;5055567;28;818;-55
2022/01/16 05:39:29;;;;;;;;;;;11.70;99.90;;;;;;5054106;28;994;-55
2022/01/16 05:41:56;;;;;;;;;;;11.70;99.90;;;;;;5036461;28;1564;-55
2022/01/16 05:44:24;;;;;;;;;;;11.70;99.90;;;;;;5037488;28;1023;-55
2022/01/16 05:46:50;;;;;;;;;;;11.60;99.90;;;;;;5055704;28;965;-55
2022/01/16 05:49:19;;;;;;;;;;;11.60;99.90;;;;;;5053931;28;869;-55
2022/01/16 05:51:45;;;;;;;;;;;11.60;99.90;;;;;;5050982;28;814;-55
2022/01/16 05:54:12;;;;;;;;;;;11.60;99.90;;;;;;5055053;28;1902;-55
2022/01/16 05:56:38;;;;;;;;;;;11.60;99.90;;;;;;5055363;28;974;-55
2022/01/16 05:59:05;;;;;;;;;;;11.60;99.90;;;;;;5048983;28;1064;-55
2022/01/16 06:01:33;;;;;;;;;;;11.60;99.90;;;;;;5057066;28;927;-55
2022/01/16 06:04:00;;;;;;;;;;;11.60;99.90;;;;;;5059298;28;1038;-55
2022/01/16 06:06:26;;;;;;;;;;;11.60;99.90;;;;;;5058783;28;944;-55
2022/01/16 06:08:53;;;;;;;;;;;11.60;99.90;;;;;;4991986;28;1005;-55
2022/01/16 06:11:21;;;;;;;;;;;11.60;99.90;;;;;;5058854;28;1010;-55
2022/01/16 06:13:48;;;;;;;;;;;11.60;99.90;;;;;;5058673;28;1973;-55
2022/01/16 06:16:14;;;;;;;;;;;11.60;99.90;;;;;;5058934;28;873;-55
2022/01/16 06:18:40;;;;;;;;;;;11.60;99.90;;;;;;5058852;28;1058;-55
2022/01/16 06:21:06;;;;;;;;;;;11.60;99.90;;;;;;5057093;28;1078;-55
2022/01/16 06:23:32;;;;;;;;;;;11.50;99.90;;;;;;5058583;28;1081;-55
2022/01/16 06:25:58;;;;;;;;;;;11.60;99.90;;;;;;5056930;28;1010;-55
2022/01/16 06:28:25;;;;;;;;;;;11.50;99.90;;;;;;5056910;28;933;-55
2022/01/16 06:30:54;;;;;;;;;;;11.50;99.90;;;;;;5056869;28;1140;-55
2022/01/16 06:33:24;;;;;;;;;;;11.50;99.90;;;;;;5056896;28;1922;-55
2022/01/16 06:35:53;;;;;;;;;;;11.50;99.90;;;;;;5050065;28;998;-55
2022/01/16 06:38:22;;;;;;;;;;;11.50;99.90;;;;;;5056848;28;995;-55
2022/01/16 06:40:50;;;;;;;;;;;11.50;99.90;;;;;;5014744;28;965;-55
2022/01/16 06:43:16;;;;;;;;;;;11.50;99.90;;;;;;5057644;28;1243;-55
2022/01/16 06:45:42;;;;;;;;;;;11.50;99.90;;;;;;5057027;28;1255;-55
2022/01/16 06:48:11;;;;;;;;;;;11.50;99.90;;;;;;5022047;28;1779;-55
2022/01/16 06:50:38;;;;;;;;;;;11.50;99.90;;;;;;5044421;28;1060;-55
2022/01/16 06:53:05;;;;;;;;;;;11.50;99.90;;;;;;5056320;28;1922;-55
2022/01/16 06:55:35;;;;;;;;;;;11.50;99.90;;;;;;5040007;28;975;-55
2022/01/16 06:58:01;;;;;;;;;;;11.50;99.90;;;;;;5023413;28;963;-55
2022/01/16 07:00:26;;;;;;;;;;;11.50;99.90;;;;;;5056618;28;941;-55
2022/01/16 07:02:53;;;;;;;;;;;11.50;99.90;;;;;;5056596;28;1042;-55
2022/01/16 07:05:21;;;;;;;;;;;11.50;99.90;;;;;;5058078;28;905;-55
2022/01/16 07:07:48;;;;;;;;;;;11.50;99.90;;;;;;5057191;28;1329;-55
2022/01/16 07:10:14;;;;;;;;;;;11.40;99.90;;;;;;5057856;28;758;-55
2022/01/16 07:12:40;;;;;;;;;;;11.40;99.90;;;;;;5056980;28;1910;-55
2022/01/16 07:15:07;;;;;;;;;;;11.40;99.90;;;;;;5057935;28;1120;-55
2022/01/16 07:17:33;;;;;;;;;;;11.40;99.90;;;;;;5057671;28;824;-55
2022/01/16 07:20:00;;;;;;;;;;;11.40;99.90;;;;;;5039690;28;912;-55
2022/01/16 07:22:26;;;;;;;;;;;11.40;99.90;;;;;;5057269;28;1247;-55
2022/01/16 07:24:55;;;;;;;;;;;11.40;99.90;;;;;;5057791;28;782;-55
2022/01/16 07:27:21;;;;;;;;;;;11.40;99.90;;;;;;5023332;28;847;-55
2022/01/16 07:29:47;;;;;;;;;;;11.40;99.90;;;;;;5057561;28;804;-55
2022/01/16 07:32:15;;;;;;;;;;;11.40;99.90;;;;;;5056122;28;989;-55
2022/01/16 07:34:42;;;;;;;;;;;11.40;99.90;;;;;;5057398;28;754;-55
2022/01/16 07:37:08;;;;;;;;;;;11.40;99.90;;;;;;5056856;28;1285;-55
2022/01/16 07:39:37;;;;;;;;;;;11.40;99.90;;;;;;5057115;28;868;-54
2022/01/16 07:42:04;;;;;;;;;;;11.50;99.90;;;;;;5057311;28;768;-55
2022/01/16 07:44:31;;;;;;;;;;;11.50;99.90;;;;;;5022717;28;1102;-55
2022/01/16 07:46:57;;;;;;;;;;;11.50;99.90;;;;;;5038607;28;1242;-55
2022/01/16 07:49:23;;;;;;;;;;;11.50;99.90;;;;;;5055947;28;949;-55
2022/01/16 07:51:50;;;;;;;;;;;11.60;99.90;;;;;;5056905;28;958;-55
2022/01/16 07:54:16;;;;;;;;;;;11.60;99.90;;;;;;5056862;28;1898;-55
2022/01/16 07:56:43;;;;;;;;;;;11.70;99.90;;;;;;5056847;28;945;-55
2022/01/16 07:59:09;;;;;;;;;;;11.70;99.90;;;;;;5055736;28;934;-55
2022/01/16 08:01:35;;;;;;;;;;;11.80;99.90;;;;;;5056795;28;770;-55
2022/01/16 08:04:06;;;;;;;;;;;11.80;99.90;;;;;;5057177;28;845;-55
2022/01/16 08:06:34;;;;;;;;;;;11.90;99.90;;;;;;5056828;28;870;-55
2022/01/16 08:09:00;;;;;;;;;;;11.90;99.90;;;;;;5056467;28;925;-55
2022/01/16 08:11:27;;;;;;;;;;;12.00;99.90;;;;;;5056713;28;867;-55
2022/01/16 08:13:53;;;;;;;;;;;12.00;99.90;;;;;;5056583;28;1898;-55
2022/01/16 08:16:20;;;;;;;;;;;12.10;99.90;;;;;;5056729;28;950;-55
2022/01/16 08:18:46;;;;;;;;;;;12.20;99.90;;;;;;5055899;28;1005;-55
2022/01/16 08:21:12;;;;;;;;;;;12.30;99.90;;;;;;5056153;28;1179;-55
2022/01/16 08:23:39;;;;;;;;;;;12.30;99.90;;;;;;5056303;28;975;-55
2022/01/16 08:26:08;;;;;;;;;;;12.40;99.90;;;;;;5055709;28;838;-55
2022/01/16 08:28:34;;;;;;;;;;;12.50;99.90;;;;;;5056456;28;917;-55
2022/01/16 08:31:00;;;;;;;;;;;12.60;99.90;;;;;;5054929;28;940;-55
2022/01/16 08:33:27;;;;;;;;;;;12.60;99.90;;;;;;5056194;28;1975;-55
2022/01/16 08:35:54;;;;;;;;;;;12.70;99.90;;;;;;5056380;28;967;-55
2022/01/16 08:38:23;;;;;;;;;;;12.80;99.90;;;;;;5055309;28;1185;-55
2022/01/16 08:40:50;;;;;;;;;;;12.90;99.90;;;;;;5054099;28;863;-55
2022/01/16 08:43:17;;;;;;;;;;;12.90;99.90;;;;;;5055998;28;1159;-55
2022/01/16 08:45:45;;;;;;;;;;;13.00;99.90;;;;;;5057496;28;1168;-55
2022/01/16 08:48:11;;;;;;;;;;;13.10;99.90;;;;;;5053766;28;1342;-55
2022/01/16 08:50:38;;;;;;;;;;;13.20;99.90;;;;;;5056275;28;775;-55
2022/01/16 08:53:05;;;;;;;;;;;13.20;99.90;;;;;;5055643;28;1902;-55
2022/01/16 08:55:34;;;;;;;;;;;13.30;99.90;;;;;;5055976;28;808;-55
2022/01/16 08:58:02;;;;;;;;;;;13.30;99.90;;;;;;5055698;28;806;-55
2022/01/16 09:00:28;;;;;;;;;;;13.40;99.90;;;;;;5055668;28;1196;-55
2022/01/16 09:02:54;;;;;;;;;;;13.40;99.90;;;;;;5055832;28;845;-55
2022/01/16 09:05:20;;;;;;;;;;;13.50;99.90;;;;;;5038293;28;1299;-55
2022/01/16 09:07:47;;;;;;;;;;;13.50;99.90;;;;;;5054783;28;853;-55
2022/01/16 09:10:14;;;;;;;;;;;13.60;99.90;;;;;;5037627;28;1033;-55
2022/01/16 09:12:41;;;;;;;;;;;13.60;99.90;;;;;;5053999;28;1910;-55
2022/01/16 09:15:16;;;;;;;;;;;13.60;99.90;;;;;;5055972;28;979;-55
2022/01/16 09:17:43;;;;;;;;;;;13.60;99.90;;;;;;5055783;28;778;-55
2022/01/16 09:20:13;;;;;;;;;;;13.70;99.90;;;;;;5055992;28;822;-55
2022/01/16 09:22:40;;;;;;;;;;;13.70;99.90;;;;;;5021675;28;1227;-55
2022/01/16 09:25:06;;;;;;;;;;;13.70;99.90;;;;;;5055538;28;900;-55
2022/01/16 09:27:33;;;;;;;;;;;13.70;99.90;;;;;;5052153;28;1470;-54
2022/01/16 09:30:00;;;;;;;;;;;13.70;99.90;;;;;;5055459;28;818;-55
2022/01/16 09:32:33;;;;;;;;;;;13.80;99.90;;;;;;5054338;28;1035;-54
2022/01/16 09:35:03;;;;;;;;;;;13.80;99.90;;;;;;5055519;28;1082;-55
2022/01/16 09:37:29;;;;;;;;;;;13.80;99.90;;;;;;5058797;28;770;-55
2022/01/16 09:39:58;;;;;;;;;;;13.80;99.90;;;;;;5041577;28;953;-55
2022/01/16 09:42:26;;;;;;;;;;;13.80;99.90;;;;;;5055752;28;1267;-55
2022/01/16 09:44:53;;;;;;;;;;;13.80;99.90;;;;;;5059483;28;755;-55
2022/01/16 09:47:19;;;;;;;;;;;13.80;99.90;;;;;;5025001;28;998;-55
2022/01/16 09:49:46;;;;;;;;;;;13.80;99.90;;;;;;5041223;28;999;-55
2022/01/16 09:52:12;;;;;;;;;;;13.70;99.90;;;;;;5058162;28;1245;-46
2022/01/16 09:54:40;;;;;;;;;;;13.70;99.90;;;;;;5057708;28;1963;-55
2022/01/16 09:57:06;;;;;;;;;;;13.70;99.90;;;;;;5059196;28;772;-45
2022/01/16 09:59:33;;;;;;;;;;;13.70;99.90;;;;;;5059018;28;851;-45
2022/01/16 10:02:00;;;;;;;;;;;13.70;99.90;;;;;;5057221;28;931;-55
2022/01/16 10:04:55;;;;;;;;;;;13.70;99.90;;;;;;5059045;28;753;-55
2022/01/16 10:07:22;;;;;;;;;;;13.70;99.90;;;;;;5037359;28;1090;-55
2022/01/16 10:10:13;;;;;;;;;;;13.70;99.90;;;;;;5037514;28;1117;-55
2022/01/16 10:12:51;;;;;;;;;;;13.70;99.90;;;;;;5019915;28;1334;-55
2022/01/16 10:15:39;;;;;;;;;;;13.70;99.90;;;;;;5033112;28;790;-55
2022/01/16 10:18:07;;;;;;;;;;;13.70;99.90;;;;;;5036874;28;961;-45
2022/01/16 10:20:40;;;;;;;;;;;13.70;99.90;;;;;;5037315;28;901;-55
2022/01/16 10:23:14;;;;;;;;;;;13.70;99.90;;;;;;5036976;28;1177;-55
2022/01/16 10:25:44;;;;;;;;;;;13.70;99.90;;;;;;5037120;28;1085;-45
2022/01/16 10:28:15;;;;;;;;;;;13.80;99.90;;;;;;5035632;28;1012;-55
2022/01/16 10:30:43;;;;;;;;;;;13.80;99.90;;;;;;4988344;28;1134;-55
2022/01/16 10:33:19;;;;;;;;;;;13.90;99.90;;;;;;5036550;28;1901;-45
2022/01/16 10:35:47;;;;;;;;;;;13.90;99.90;;;;;;5035777;28;1007;-45
2022/01/16 10:38:25;;;;;;;;;;;13.90;99.90;;;;;;5035809;28;976;-46
2022/01/16 10:40:52;;;;;;;;;;;13.90;99.90;;;;;;5036944;28;802;-46
2022/01/16 10:43:38;;;;;;;;;;;14.00;99.90;;;;;;5040285;28;1107;-46
2022/01/16 10:46:04;;;;;;;;;;;14.00;99.90;;;;;;5039842;28;980;-55
2022/01/16 10:48:36;;;;;;;;;;;14.00;99.90;;;;;;5059397;28;1122;-55
2022/01/16 10:51:02;;;;;;;;;;;14.00;99.90;;;;;;5055772;28;950;-55
2022/01/16 10:53:29;;;;;;;;;;;14.00;99.90;;;;;;5058042;28;1894;-54
2022/01/16 10:56:03;;;;;;;;;;;14.00;99.90;;;;;;5057223;28;1014;-54
2022/01/16 10:58:37;;;;;;;;;;;14.00;99.90;;;;;;5056330;28;1050;-55
2022/01/16 11:01:13;;;;;;;;;;;14.00;99.90;;;;;;5040074;28;967;-55
2022/01/16 11:04:01;;;;;;;;;;;14.00;99.90;;;;;;5036548;28;902;-55
2022/01/16 11:06:29;;;;;;;;;;;13.90;99.90;;;;;;5035706;28;863;-54
2022/01/16 11:08:56;;;;;;;;;;;13.90;99.90;;;;;;5036145;28;940;-45
2022/01/16 11:11:24;;;;;;;;;;;13.90;99.90;;;;;;5036379;28;826;-46
2022/01/16 11:14:11;;;;;;;;;;;13.90;99.90;;;;;;5008904;28;1978;-46
2022/01/16 11:16:37;;;;;;;;;;;13.90;99.90;;;;;;5036209;28;944;-46
2022/01/16 11:19:03;;;;;;;;;;;13.90;99.90;;;;;;4987045;28;1219;-45
2022/01/16 11:21:31;;;;;;;;;;;13.90;99.90;;;;;;5035588;28;1188;-45
2022/01/16 11:26:27;;;;;;;;;;;13.80;99.90;;;;;;5036015;28;1480;-55
2022/01/16 11:28:55;;;;;;;;;;;13.80;99.90;;;;;;5035480;28;917;-55
2022/01/16 11:31:24;;;;;;;;;;;13.80;99.90;;;;;;5035943;28;841;-55
2022/01/16 11:33:50;;;;;;;;;;;13.80;99.90;;;;;;5035161;28;1965;-46
2022/01/16 11:36:19;;;;;;;;;;;13.80;99.90;;;;;;5056471;28;1269;-55
2022/01/16 11:38:45;;;;;;;;;;;13.80;99.90;;;;;;5057408;28;866;-55
2022/01/16 11:41:16;;;;;;;;;;;13.80;99.90;;;;;;5057297;28;756;-46
2022/01/16 11:43:46;;;;;;;;;;;13.80;99.90;;;;;;5038934;28;962;-45
2022/01/16 11:46:24;;;;;;;;;;;13.80;99.90;;;;;;5038865;28;964;-45
2022/01/16 11:49:00;;;;;;;;;;;13.80;99.90;;;;;;5039162;28;1082;-55
2022/01/16 11:51:32;;;;;;;;;;;13.80;99.90;;;;;;5054967;28;860;-55
2022/01/16 11:53:59;;;;;;;;;;;13.80;99.90;;;;;;5056840;28;1961;-55
2022/01/16 11:56:37;;;;;;;;;;;13.80;99.90;;;;;;5056859;28;1230;-55
2022/01/16 11:59:22;;;;;;;;;;;13.90;99.90;;;;;;5056806;28;738;-55
2022/01/16 12:01:57;;;;;;;;;;;13.90;99.90;;;;;;5056660;28;814;-55
2022/01/16 12:04:30;;;;;;;;;;;13.90;99.90;;;;;;5056541;28;946;-55
2022/01/16 12:06:59;;;;;;;;;;;13.90;99.90;;;;;;5056890;28;889;-55
2022/01/16 12:09:59;;;;;;;;;;;13.90;99.90;;;;;;5056023;28;958;-55
2022/01/16 12:12:31;;;;;;;;;;;14.00;99.90;;;;;;5053570;28;1805;-55
2022/01/16 12:15:15;;;;;;;;;;;14.00;99.90;;;;;;5056340;28;1894;-55
2022/01/16 12:17:44;;;;;;;;;;;14.00;99.90;;;;;;5056798;28;1009;-54
2022/01/16 12:20:17;;;;;;;;;;;14.00;99.90;;;;;;5056446;28;786;-55
2022/01/16 12:22:55;;;;;;;;;;;14.00;99.90;;;;;;5056298;28;1021;-55
2022/01/16 12:25:36;;;;;;;;;;;14.00;99.90;;;;;;5052899;28;1515;-55
2022/01/16 12:28:05;;;;;;;;;;;14.00;99.90;;;;;;5038279;28;1033;-55
2022/01/16 12:30:32;;;;;;;;;;;14.00;99.90;;;;;;5056246;28;1309;-55
2022/01/16 12:33:08;;;;;;;;;;;14.00;99.90;;;;;;5056111;28;1035;-55
2022/01/16 12:35:58;;;;;;;;;;;14.00;99.90;;;;;;5055844;28;853;-55
2022/01/16 12:38:48;;;;;;;;;;;14.00;99.90;;;;;;5053684;28;745;-55
2022/01/16 12:41:30;;;;;;;;;;;13.90;99.90;;;;;;5055905;28;1026;-55
2022/01/16 12:44:15;;;;;;;;;;;13.90;99.90;;;;;;5056270;28;1194;-55
2022/01/16 12:46:45;;;;;;;;;;;13.90;99.90;;;;;;5056147;28;778;-55
2022/01/16 12:49:12;;;;;;;;;;;13.90;99.90;;;;;;5055896;28;1093;-55
2022/01/16 12:51:40;;;;;;;;;;;13.90;99.90;;;;;;5054274;28;918;-55
2022/01/16 12:54:30;;;;;;;;;;;13.90;99.90;;;;;;5054819;28;1906;-54
2022/01/16 12:56:59;;;;;;;;;;;13.90;99.90;;;;;;5055036;28;893;-55
2022/01/16 12:59:30;;;;;;;;;;;13.80;99.90;;;;;;5055176;28;829;-55
2022/01/16 13:02:01;;;;;;;;;;;13.80;99.90;;;;;;5052129;28;1305;-55
2022/01/16 13:04:33;;;;;;;;;;;13.80;99.90;;;;;;5037945;28;1039;-55
2022/01/16 13:07:08;;;;;;;;;;;13.80;99.90;;;;;;5055746;28;1061;-55
2022/01/16 13:09:34;;;;;;;;;;;13.70;99.90;;;;;;5054272;28;900;-55
2022/01/16 13:12:02;;;;;;;;;;;13.70;99.90;;;;;;5036735;28;1013;-55
2022/01/16 13:14:37;;;;;;;;;;;13.70;99.90;;;;;;5050144;28;1981;-55
2022/01/16 13:17:08;;;;;;;;;;;13.70;99.90;;;;;;5066437;28;954;-55
2022/01/16 13:22:16;;;;;;;;;;;13.60;99.90;;;;;;5054820;28;1069;-55
2022/01/16 13:24:50;;;;;;;;;;;13.70;99.90;;;;;;5021993;28;896;-45
2022/01/16 13:27:18;;;;;;;;;;;13.60;99.90;;;;;;5055142;28;857;-55
2022/01/16 13:29:47;;;;;;;;;;;13.60;99.90;;;;;;5053977;28;846;-46
2022/01/16 13:32:15;;;;;;;;;;;13.60;99.90;;;;;;5054976;28;1323;-45
2022/01/16 13:35:06;;;;;;;;;;;13.60;99.90;;;;;;5054547;28;1902;-45
2022/01/16 13:37:36;;;;;;;;;;;13.60;99.90;;;;;;5033753;28;1222;-46
2022/01/16 13:40:06;;;;;;;;;;;13.60;99.90;;;;;;5032627;28;1431;-45
2022/01/16 13:42:53;;;;;;;;;;;13.70;99.90;;;;;;5034032;28;1087;-55
2022/01/16 13:45:32;;;;;;;;;;;13.70;99.90;;;;;;5016968;28;866;-45
2022/01/16 13:48:00;;;;;;;;;;;13.70;99.90;;;;;;5031962;28;1570;-45
2022/01/16 13:50:33;;;;;;;;;;;13.70;99.90;;;;;;5033838;28;1044;-45
2022/01/16 13:53:02;;;;;;;;;;;13.70;99.90;;;;;;5033417;28;846;-45
2022/01/16 13:55:31;;;;;;;;;;;13.70;99.90;;;;;;4968319;28;1906;-55
2022/01/16 13:57:58;;;;;;;;;;;13.70;99.90;;;;;;5033752;28;975;-54
2022/01/16 14:00:28;;;;;;;;;;;13.70;99.90;;;;;;5017091;28;972;-45
2022/01/16 14:03:09;;;;;;;;;;;13.70;99.90;;;;;;5016874;28;891;-45
2022/01/16 14:05:39;;;;;;;;;;;13.70;99.90;;;;;;5030723;28;1125;-45
2022/01/16 14:08:20;;;;;;;;;;;13.70;99.90;;;;;;5013690;28;1141;-45
2022/01/16 14:10:47;;;;;;;;;;;13.60;99.90;;;;;;5015385;28;1081;-45
2022/01/16 14:13:14;;;;;;;;;;;13.50;99.90;;;;;;5032242;28;1059;-46
2022/01/16 14:16:02;;;;;;;;;;;13.50;99.90;;;;;;5054192;28;935;-46
2022/01/16 14:19:04;;;;;;;;;;;13.50;99.90;;;;;;5054259;28;805;-45
2022/01/16 14:24:16;;;;;;;;;;;13.50;99.90;;;;;;5056678;28;844;-46
2022/01/16 14:26:46;;;;;;;;;;;13.60;99.90;;;;;;5056046;28;907;-45
2022/01/16 14:29:14;;;;;;;;;;;13.70;99.90;;;;;;5055869;28;856;-45
2022/01/16 14:32:03;;;;;;;;;;;13.80;99.90;;;;;;5056741;28;791;-46
2022/01/16 14:34:29;;;;;;;;;;;13.80;99.90;;;;;;5056780;28;1909;-46
2022/01/16 14:36:55;;;;;;;;;;;13.90;99.90;;;;;;5056398;28;1008;-46
2022/01/16 14:39:23;;;;;;;;;;;14.00;99.90;;;;;;5025330;28;1195;-46
2022/01/16 14:41:51;;;;;;;;;;;14.00;99.90;;;;;;5056113;28;1060;-45
2022/01/16 14:44:21;;;;;;;;;;;14.10;99.90;;;;;;5022821;28;1008;-45
2022/01/16 14:46:49;;;;;;;;;;;14.10;99.90;;;;;;5056596;28;794;-45
2022/01/16 14:49:17;;;;;;;;;;;14.20;99.90;;;;;;5054827;28;941;-46
2022/01/16 14:51:44;;;;;;;;;;;14.30;99.90;;;;;;5052204;28;989;-45
2022/01/16 14:54:12;;;;;;;;;;;14.30;99.90;;;;;;5039723;28;1918;-45
2022/01/16 14:56:38;;;;;;;;;;;14.40;99.90;;;;;;5056617;28;785;-45
2022/01/16 14:59:05;;;;;;;;;;;14.40;99.90;;;;;;5056198;28;1028;-45
2022/01/16 15:01:32;;;;;;;;;;;14.50;99.90;;;;;;5039621;28;1305;-46
2022/01/16 15:04:05;;;;;;;;;;;14.60;99.90;;;;;;5052421;28;813;-46
2022/01/16 15:06:31;;;;;;;;;;;14.70;99.90;;;;;;5038911;28;988;-45
2022/01/16 15:09:00;;;;;;;;;;;14.70;99.90;;;;;;5038839;28;958;-46
2022/01/16 15:11:29;;;;;;;;;;;14.80;99.90;;;;;;5056197;28;801;-45
2022/01/16 15:13:58;;;;;;;;;;;14.80;99.90;;;;;;5055989;28;1973;-46
2022/01/16 15:16:27;;;;;;;;;;;14.90;99.90;;;;;;5024628;28;1007;-54
2022/01/16 15:18:57;;;;;;;;;;;14.90;99.90;;;;;;5057337;28;873;-54
2022/01/16 15:22:09;;;;;;;;;;;15.00;99.90;;;;;;5038679;28;1017;-53
2022/01/16 15:24:18;;;;;;;;;;;15.00;99.90;;;;;;5056230;28;1345;-54
2022/01/16 15:26:46;;;;;;;;;;;15.00;99.90;;;;;;5055374;28;942;-46
2022/01/16 15:29:16;;;;;;;;;;;15.10;99.90;;;;;;5057689;28;893;-46
2022/01/16 15:31:42;;;;;;;;;;;15.10;99.90;;;;;;5057392;28;922;-46
2022/01/16 15:34:10;;;;;;;;;;;15.10;99.90;;;;;;5055578;28;1967;-53
2022/01/16 15:36:36;;;;;;;;;;;15.20;99.90;;;;;;5057221;28;826;-54
2022/01/16 15:39:04;;;;;;;;;;;15.20;99.90;;;;;;5057128;28;850;-46
2022/01/16 15:41:30;;;;;;;;;;;15.20;99.90;;;;;;5056711;28;1261;-45
2022/01/16 15:43:57;;;;;;;;;;;15.20;99.90;;;;;;5057236;28;909;-45
2022/01/16 15:46:24;;;;;;;;;;;15.20;99.90;;;;;;5056314;28;837;-54